Time;durP1;ratioP1;P1;durP2;ratioP2;P2;SDS_P1;SDS_P2;PMS_P1;PMS_P2;Temp;Humidity;BMP_temperature;BMP_pressure;BME280_temperature;BME280_humidity;BME280_pressure;Samples;Min_cycle;Max_cycle;Signal;HPM_P1;HPM_P2
2023/10/21 00:02:24;;;;;;;18.05;5.15;;;;;;;;;;4996183;28;20048;-79
2023/10/21 00:04:50;;;;;;;22.48;5.57;;;;;;;;;;5013959;28;20030;-76
2023/10/21 00:07:15;;;;;;;17.20;5.38;;;;;;;;;;4996054;28;20030;-76
2023/10/21 00:09:40;;;;;;;15.60;4.85;;;;;;;;;;4995882;28;20033;-77
2023/10/21 00:12:07;;;;;;;18.85;5.20;;;;;;;;;;5013375;28;20046;-77
2023/10/21 00:14:33;;;;;;;15.40;5.28;;;;;;;;;;5013429;28;20046;-77
2023/10/21 00:16:59;;;;;;;16.83;5.55;;;;;;;;;;5013302;28;20030;-77
2023/10/21 00:19:24;;;;;;;16.63;5.15;;;;;;;;;;5013382;28;20025;-77
2023/10/21 00:21:50;;;;;;;21.58;5.05;;;;;;;;;;5013358;28;20050;-77
2023/10/21 00:24:15;;;;;;;14.77;5.43;;;;;;;;;;5013326;28;20032;-77
2023/10/21 00:26:47;;;;;;;17.77;5.80;;;;;;;;;;5013321;28;20152;-81
2023/10/21 00:29:14;;;;;;;20.02;5.65;;;;;;;;;;4988032;23;20050;-80
2023/10/21 00:31:40;;;;;;;18.38;6.05;;;;;;;;;;4996567;28;20037;-81
2023/10/21 00:34:06;;;;;;;15.55;5.32;;;;;;;;;;5012911;28;20124;-81
2023/10/21 00:36:31;;;;;;;18.85;5.53;;;;;;;;;;4996881;28;20109;-81
2023/10/21 00:38:57;;;;;;;22.08;6.15;;;;;;;;;;5014095;28;20385;-81
2023/10/21 00:41:22;;;;;;;23.13;6.05;;;;;;;;;;4996423;28;20026;-81
2023/10/21 00:43:48;;;;;;;18.75;6.07;;;;;;;;;;4996406;28;20072;-81
2023/10/21 00:46:15;;;;;;;18.25;5.78;;;;;;;;;;4996393;28;20033;-81
2023/10/21 00:48:42;;;;;;;21.98;5.97;;;;;;;;;;5015654;28;20037;-81
2023/10/21 00:51:08;;;;;;;16.38;5.63;;;;;;;;;;5000245;28;20030;-81
2023/10/21 00:53:34;;;;;;;23.15;5.43;;;;;;;;;;5000595;28;20499;-81
2023/10/21 00:56:02;;;;;;;22.88;5.72;;;;;;;;;;5016425;28;20030;-81
2023/10/21 00:58:30;;;;;;;15.98;5.47;;;;;;;;;;5000033;28;20029;-81
2023/10/21 01:00:57;;;;;;;18.77;5.90;;;;;;;;;;5000482;28;20030;-81
2023/10/21 01:03:24;;;;;;;18.75;5.65;;;;;;;;;;4999900;28;20068;-81
2023/10/21 01:05:50;;;;;;;15.77;5.03;;;;;;;;;;4999921;28;20026;-81
2023/10/21 01:08:15;;;;;;;17.85;5.90;;;;;;;;;;5017470;28;20033;-81
2023/10/21 01:10:41;;;;;;;16.23;5.32;;;;;;;;;;5016169;28;20061;-81
2023/10/21 01:13:09;;;;;;;19.15;5.88;;;;;;;;;;4999827;28;20479;-81
2023/10/21 01:15:35;;;;;;;17.27;5.53;;;;;;;;;;5017280;28;20036;-81
2023/10/21 01:18:03;;;;;;;22.30;5.50;;;;;;;;;;4999550;28;20033;-81
2023/10/21 01:20:28;;;;;;;16.67;5.75;;;;;;;;;;5017240;28;20076;-80
2023/10/21 01:22:57;;;;;;;19.55;5.40;;;;;;;;;;5017173;28;20030;-81
2023/10/21 01:25:23;;;;;;;25.15;6.15;;;;;;;;;;5017025;28;20026;-81
2023/10/21 01:27:53;;;;;;;21.80;6.30;;;;;;;;;;5015751;28;20041;-80
2023/10/21 01:30:19;;;;;;;19.15;5.90;;;;;;;;;;4983131;28;20045;-83
2023/10/21 01:32:47;;;;;;;16.08;4.88;;;;;;;;;;5018867;28;20038;-85
2023/10/21 01:35:13;;;;;;;19.52;5.97;;;;;;;;;;5003274;28;20030;-85
2023/10/21 01:37:38;;;;;;;20.48;5.72;;;;;;;;;;5021767;28;20108;-84
2023/10/21 01:40:04;;;;;;;17.35;5.20;;;;;;;;;;5020819;28;20049;-84
2023/10/21 01:42:29;;;;;;;16.75;5.00;;;;;;;;;;5003752;28;20029;-84
2023/10/21 01:44:55;;;;;;;17.08;4.78;;;;;;;;;;5021553;28;20427;-80
2023/10/21 01:47:23;;;;;;;14.85;4.80;;;;;;;;;;5001507;28;20034;-79
2023/10/21 01:49:57;;;;;;;13.45;4.85;;;;;;;;;;4997066;23;20400;-80
2023/10/21 01:52:23;;;;;;;14.43;4.28;;;;;;;;;;5022715;28;20022;-79
2023/10/21 01:54:48;;;;;;;19.48;4.65;;;;;;;;;;5001083;28;20392;-73
2023/10/21 01:57:13;;;;;;;12.75;4.13;;;;;;;;;;5017083;28;20461;-73
2023/10/21 01:59:39;;;;;;;14.35;4.00;;;;;;;;;;4998784;28;20072;-73
2023/10/21 02:02:05;;;;;;;15.18;5.07;;;;;;;;;;4999162;28;20113;-73
2023/10/21 02:04:31;;;;;;;26.85;6.13;;;;;;;;;;4999425;28;20105;-74
2023/10/21 02:06:56;;;;;;;18.85;5.35;;;;;;;;;;4998618;28;20044;-73
2023/10/21 02:09:21;;;;;;;17.15;5.70;;;;;;;;;;5016311;28;20030;-73
2023/10/21 02:11:47;;;;;;;21.10;5.90;;;;;;;;;;4982377;28;20121;-73
2023/10/21 02:14:15;;;;;;;19.23;6.57;;;;;;;;;;4998895;28;20030;-73
2023/10/21 02:16:41;;;;;;;14.55;5.82;;;;;;;;;;5016478;28;20431;-74
2023/10/21 02:19:07;;;;;;;10.38;5.20;;;;;;;;;;5015902;28;20026;-75
2023/10/21 02:21:33;;;;;;;25.15;6.10;;;;;;;;;;4998915;28;20010;-74
2023/10/21 02:23:59;;;;;;;17.55;6.68;;;;;;;;;;4998891;28;20047;-74
2023/10/21 02:26:24;;;;;;;22.83;6.32;;;;;;;;;;5016246;28;20038;-74
2023/10/21 02:28:50;;;;;;;16.67;6.60;;;;;;;;;;5016235;28;20049;-74
2023/10/21 02:31:21;;;;;;;18.15;6.88;;;;;;;;;;5015909;28;20092;-74
2023/10/21 02:33:46;;;;;;;21.52;6.45;;;;;;;;;;4982276;28;20042;-74
2023/10/21 02:36:12;;;;;;;29.20;13.05;;;;;;;;;;5015601;28;20026;-74
2023/10/21 02:38:37;;;;;;;27.52;11.75;;;;;;;;;;5016193;28;20030;-75
2023/10/21 02:41:03;;;;;;;26.00;8.82;;;;;;;;;;4981791;28;20026;-75
2023/10/21 02:43:29;;;;;;;17.25;5.45;;;;;;;;;;5016031;28;20148;-75
2023/10/21 02:45:54;;;;;;;17.70;5.68;;;;;;;;;;4998503;28;20477;-75
2023/10/21 02:48:20;;;;;;;17.63;7.82;;;;;;;;;;4998004;28;20030;-76
2023/10/21 02:50:46;;;;;;;19.90;6.65;;;;;;;;;;5015322;28;20053;-76
2023/10/21 02:53:11;;;;;;;14.98;5.13;;;;;;;;;;4997987;28;20033;-76
2023/10/21 02:55:36;;;;;;;19.10;5.72;;;;;;;;;;5015795;28;20329;-74
2023/10/21 02:58:02;;;;;;;14.82;5.13;;;;;;;;;;5015322;28;20063;-76
2023/10/21 03:00:27;;;;;;;14.63;5.32;;;;;;;;;;4997848;28;20057;-73
2023/10/21 03:02:53;;;;;;;18.27;5.30;;;;;;;;;;4997733;28;20018;-74
2023/10/21 03:05:19;;;;;;;20.17;5.03;;;;;;;;;;5015651;28;20021;-74
2023/10/21 03:07:45;;;;;;;18.33;5.15;;;;;;;;;;5015330;28;20065;-73
2023/10/21 03:10:11;;;;;;;16.98;4.75;;;;;;;;;;5027956;23;20027;-73
2023/10/21 03:12:37;;;;;;;15.43;4.50;;;;;;;;;;4996310;28;20141;-73
2023/10/21 03:15:06;;;;;;;18.58;5.15;;;;;;;;;;4997382;28;20065;-73
2023/10/21 03:17:33;;;;;;;23.30;4.95;;;;;;;;;;5013960;28;20042;-74
2023/10/21 03:19:58;;;;;;;19.38;6.03;;;;;;;;;;5014970;28;20030;-74
2023/10/21 03:22:25;;;;;;;18.50;5.35;;;;;;;;;;4997194;28;20076;-74
2023/10/21 03:24:51;;;;;;;17.60;5.28;;;;;;;;;;5015181;28;20028;-74
2023/10/21 03:27:16;;;;;;;23.65;6.78;;;;;;;;;;4997093;28;20117;-74
2023/10/21 03:29:42;;;;;;;23.73;9.85;;;;;;;;;;5014806;28;20542;-74
2023/10/21 03:32:09;;;;;;;39.80;14.90;;;;;;;;;;4997377;28;20038;-74
2023/10/21 03:34:35;;;;;;;27.52;7.90;;;;;;;;;;5013339;28;20388;-75
2023/10/21 03:37:00;;;;;;;18.73;5.72;;;;;;;;;;5013710;28;20038;-75
2023/10/21 03:39:26;;;;;;;32.25;8.98;;;;;;;;;;5013740;28;20033;-74
2023/10/21 03:41:52;;;;;;;24.95;9.07;;;;;;;;;;4997399;28;20460;-74
2023/10/21 03:44:17;;;;;;;23.10;7.40;;;;;;;;;;5014596;28;20384;-74
2023/10/21 03:46:43;;;;;;;24.92;6.85;;;;;;;;;;5014374;28;20033;-74
2023/10/21 03:49:08;;;;;;;21.88;7.80;;;;;;;;;;5014752;28;20034;-74
2023/10/21 03:51:34;;;;;;;27.52;7.95;;;;;;;;;;5014474;28;20033;-74
2023/10/21 03:53:59;;;;;;;25.58;7.00;;;;;;;;;;5014355;28;20034;-74
2023/10/21 03:56:25;;;;;;;18.42;6.25;;;;;;;;;;5013435;28;20037;-74
2023/10/21 03:58:50;;;;;;;17.90;5.63;;;;;;;;;;5014132;28;20112;-74
2023/10/21 04:01:16;;;;;;;21.17;6.53;;;;;;;;;;4996436;28;20034;-76
2023/10/21 04:03:41;;;;;;;25.88;7.72;;;;;;;;;;5014240;28;20085;-72
2023/10/21 04:06:11;;;;;;;26.90;7.40;;;;;;;;;;5013392;28;20125;-72
2023/10/21 04:08:37;;;;;;;;;;;;;;;;;;4996920;28;20037;-73
2023/10/21 04:11:02;;;;;;;15.07;3.85;;;;;;;;;;5013927;28;19914;-73
2023/10/21 04:13:28;;;;;;;14.07;4.60;;;;;;;;;;5012826;28;20040;-73
2023/10/21 04:15:53;;;;;;;21.38;4.78;;;;;;;;;;4997055;28;20079;-72
2023/10/21 04:18:19;;;;;;;17.25;4.80;;;;;;;;;;4996940;28;20029;-71
2023/10/21 04:20:44;;;;;;;14.63;4.18;;;;;;;;;;5014352;28;20123;-72
2023/10/21 04:23:10;;;;;;;12.13;4.47;;;;;;;;;;5013965;28;20041;-73
2023/10/21 04:25:35;;;;;;;16.02;4.60;;;;;;;;;;5013112;28;20496;-75
2023/10/21 04:28:02;;;;;;;14.27;5.10;;;;;;;;;;4996266;28;20476;-76
2023/10/21 04:30:28;;;;;;;13.88;5.50;;;;;;;;;;5014255;28;20109;-76
2023/10/21 04:32:55;;;;;;;22.05;6.45;;;;;;;;;;5013559;28;20049;-76
2023/10/21 04:35:21;;;;;;;17.48;5.80;;;;;;;;;;5000151;28;20034;-76
2023/10/21 04:37:46;;;;;;;18.90;5.50;;;;;;;;;;4999630;28;20033;-76
2023/10/21 04:40:13;;;;;;;18.77;5.40;;;;;;;;;;5016068;28;20464;-76
2023/10/21 04:42:38;;;;;;;13.23;5.00;;;;;;;;;;4996817;28;20041;-77
2023/10/21 04:45:05;;;;;;;15.45;5.63;;;;;;;;;;5014398;28;20022;-75
2023/10/21 04:47:32;;;;;;;10.35;5.00;;;;;;;;;;5013662;28;20057;-76
2023/10/21 04:49:57;;;;;;;19.77;5.68;;;;;;;;;;5014404;28;20030;-75
2023/10/21 04:52:23;;;;;;;16.85;5.68;;;;;;;;;;5013846;28;20034;-75
2023/10/21 04:54:48;;;;;;;21.13;6.03;;;;;;;;;;4996311;28;20033;-75
2023/10/21 04:57:14;;;;;;;16.98;5.75;;;;;;;;;;5013396;28;20038;-75
2023/10/21 04:59:39;;;;;;;17.55;5.63;;;;;;;;;;4995395;28;20022;-74
2023/10/21 05:02:05;;;;;;;20.38;6.13;;;;;;;;;;5012976;28;20495;-74
2023/10/21 05:04:31;;;;;;;17.70;5.90;;;;;;;;;;5012426;28;20057;-74
2023/10/21 05:06:56;;;;;;;15.70;6.13;;;;;;;;;;5012385;28;20037;-75
2023/10/21 05:09:21;;;;;;;17.98;5.32;;;;;;;;;;4994385;28;20041;-75
2023/10/21 05:11:47;;;;;;;16.98;6.18;;;;;;;;;;4994717;28;20567;-75
2023/10/21 05:14:12;;;;;;;13.95;5.80;;;;;;;;;;4978896;28;20044;-75
2023/10/21 05:16:38;;;;;;;17.25;6.28;;;;;;;;;;5012633;28;20070;-75
2023/10/21 05:19:04;;;;;;;19.15;6.38;;;;;;;;;;5012398;28;20112;-75
2023/10/21 05:21:30;;;;;;;19.65;6.35;;;;;;;;;;4994749;28;20034;-73
2023/10/21 05:23:57;;;;;;;24.17;6.03;;;;;;;;;;5012305;28;20037;-73
2023/10/21 05:26:22;;;;;;;23.05;6.20;;;;;;;;;;5012259;28;20037;-72
2023/10/21 05:28:48;;;;;;;20.98;5.70;;;;;;;;;;4994627;28;20120;-73
2023/10/21 05:31:14;;;;;;;16.98;5.32;;;;;;;;;;5012279;28;20037;-73
2023/10/21 05:33:40;;;;;;;12.50;4.90;;;;;;;;;;5012304;28;20029;-75
2023/10/21 05:36:06;;;;;;;18.88;6.18;;;;;;;;;;5015748;28;20092;-74
2023/10/21 05:38:32;;;;;;;16.67;5.57;;;;;;;;;;4998448;28;20041;-74
2023/10/21 05:40:57;;;;;;;18.27;4.57;;;;;;;;;;4998195;28;20026;-74
2023/10/21 05:43:23;;;;;;;15.63;4.90;;;;;;;;;;5015692;28;20033;-74
2023/10/21 05:45:48;;;;;;;12.10;4.30;;;;;;;;;;5015580;28;20028;-72
2023/10/21 05:48:14;;;;;;;17.63;5.10;;;;;;;;;;5015562;28;20037;-72
2023/10/21 05:50:39;;;;;;;16.48;5.25;;;;;;;;;;4998013;28;20030;-74
2023/10/21 05:53:04;;;;;;;11.52;4.43;;;;;;;;;;5015550;28;20569;-75
2023/10/21 05:55:30;;;;;;;15.48;5.00;;;;;;;;;;4997865;28;20385;-75
2023/10/21 05:57:55;;;;;;;12.65;5.13;;;;;;;;;;4997956;28;20041;-76
2023/10/21 06:00:21;;;;;;;14.00;5.05;;;;;;;;;;5016207;28;20532;-76
2023/10/21 06:02:47;;;;;;;14.85;5.05;;;;;;;;;;4981926;28;20017;-77
2023/10/21 06:05:14;;;;;;;13.88;4.50;;;;;;;;;;5016044;28;20460;-77
2023/10/21 06:07:40;;;;;;;18.48;4.78;;;;;;;;;;5016162;28;20076;-77
2023/10/21 06:10:06;;;;;;;17.65;5.07;;;;;;;;;;5016321;28;20037;-77
2023/10/21 06:12:33;;;;;;;12.57;4.28;;;;;;;;;;5016259;28;20036;-76
2023/10/21 06:14:58;;;;;;;13.05;4.78;;;;;;;;;;4998826;28;20088;-77
2023/10/21 06:17:26;;;;;;;13.70;5.55;;;;;;;;;;4998426;28;20064;-78
2023/10/21 06:19:52;;;;;;;17.13;6.13;;;;;;;;;;5016299;28;20056;-78
2023/10/21 06:22:18;;;;;;;12.93;5.00;;;;;;;;;;4998398;28;20032;-79
2023/10/21 06:24:43;;;;;;;17.02;8.80;;;;;;;;;;5016178;28;20369;-79
2023/10/21 06:27:09;;;;;;;17.48;9.52;;;;;;;;;;5015853;28;20369;-79
2023/10/21 06:29:34;;;;;;;16.52;6.45;;;;;;;;;;5015958;28;20424;-80
2023/10/21 06:32:04;;;;;;;18.73;5.63;;;;;;;;;;5015634;28;20033;-77
2023/10/21 06:34:29;;;;;;;10.52;4.88;;;;;;;;;;5015330;28;20485;-77
2023/10/21 06:36:54;;;;;;;16.20;5.60;;;;;;;;;;5015172;28;20080;-77
2023/10/21 06:39:20;;;;;;;17.88;5.78;;;;;;;;;;5015536;28;20026;-77
2023/10/21 06:41:46;;;;;;;16.33;5.07;;;;;;;;;;4998097;28;20113;-78
2023/10/21 06:44:11;;;;;;;17.42;5.38;;;;;;;;;;5015294;28;20030;-78
2023/10/21 06:46:38;;;;;;;17.70;4.90;;;;;;;;;;5014433;28;20045;-78
2023/10/21 06:49:04;;;;;;;12.40;5.13;;;;;;;;;;4982013;28;20034;-77
2023/10/21 06:51:29;;;;;;;14.38;4.65;;;;;;;;;;4997794;28;20048;-78
2023/10/21 06:53:55;;;;;;;15.90;5.20;;;;;;;;;;5015305;28;20038;-79
2023/10/21 06:56:22;;;;;;;14.10;5.18;;;;;;;;;;5015162;28;20050;-79
2023/10/21 06:58:47;;;;;;;13.90;5.10;;;;;;;;;;5015343;28;20018;-72
2023/10/21 07:01:13;;;;;;;14.30;5.22;;;;;;;;;;4997710;28;20032;-78
2023/10/21 07:03:38;;;;;;;14.98;5.07;;;;;;;;;;5015145;28;20028;-71
2023/10/21 07:06:04;;;;;;;15.80;4.95;;;;;;;;;;4997344;28;20037;-72
2023/10/21 07:08:29;;;;;;;19.77;6.95;;;;;;;;;;5014876;28;20484;-72
2023/10/21 07:10:55;;;;;;;15.52;6.07;;;;;;;;;;5014888;28;20129;-76
2023/10/21 07:13:20;;;;;;;11.30;5.50;;;;;;;;;;4980944;28;20030;-76
2023/10/21 07:15:47;;;;;;;14.98;5.10;;;;;;;;;;5014644;28;20025;-76
2023/10/21 07:18:16;;;;;;;20.05;7.25;;;;;;;;;;5015005;28;20049;-76
2023/10/21 07:20:42;;;;;;;17.17;6.05;;;;;;;;;;5014907;28;20022;-76
2023/10/21 07:23:12;;;;;;;36.63;7.50;;;;;;;;;;5014671;28;20022;-75
2023/10/21 07:25:37;;;;;;;;;;;;;;;;;;4997463;28;20037;-72
2023/10/21 07:28:03;;;;;;;21.95;5.80;;;;;;;;;;5014397;28;19910;-73
2023/10/21 07:30:29;;;;;;;18.73;5.88;;;;;;;;;;5013888;28;20026;-73
2023/10/21 07:32:55;;;;;;;16.50;5.90;;;;;;;;;;5014068;28;20034;-70
2023/10/21 07:35:20;;;;;;;16.45;6.25;;;;;;;;;;4979017;28;20029;-70
2023/10/21 07:37:46;;;;;;;17.20;6.53;;;;;;;;;;5013335;28;20091;-70
2023/10/21 07:40:12;;;;;;;15.93;6.57;;;;;;;;;;5013617;28;20041;-70
2023/10/21 07:42:37;;;;;;;16.92;6.22;;;;;;;;;;5013739;28;20026;-71
2023/10/21 07:45:06;;;;;;;20.10;7.07;;;;;;;;;;5013620;28;20030;-70
2023/10/21 07:47:33;;;;;;;20.80;7.35;;;;;;;;;;5013230;28;20053;-76
2023/10/21 07:49:59;;;;;;;14.93;7.00;;;;;;;;;;4996091;28;20056;-72
2023/10/21 07:52:24;;;;;;;20.75;7.30;;;;;;;;;;4996159;28;20516;-71
2023/10/21 07:54:50;;;;;;;16.33;7.07;;;;;;;;;;5013115;28;20026;-72
2023/10/21 07:57:18;;;;;;;19.17;6.70;;;;;;;;;;5012525;28;20038;-78
2023/10/21 07:59:44;;;;;;;20.63;7.22;;;;;;;;;;4995266;28;20380;-77
2023/10/21 08:02:13;;;;;;;18.02;8.00;;;;;;;;;;5011825;28;20037;-78
2023/10/21 08:04:38;;;;;;;15.85;7.78;;;;;;;;;;4994949;28;20028;-78
2023/10/21 08:07:03;;;;;;;22.52;7.03;;;;;;;;;;5012937;28;20070;-78
2023/10/21 08:09:29;;;;;;;23.63;7.57;;;;;;;;;;4994627;28;20037;-78
2023/10/21 08:11:54;;;;;;;22.88;7.28;;;;;;;;;;4993864;28;20050;-78
2023/10/21 08:14:20;;;;;;;20.70;7.20;;;;;;;;;;4994616;28;20030;-78
2023/10/21 08:16:46;;;;;;;16.95;7.35;;;;;;;;;;5012892;28;20039;-78
2023/10/21 08:19:11;;;;;;;14.15;5.95;;;;;;;;;;4994360;28;20029;-79
2023/10/21 08:21:37;;;;;;;15.95;5.05;;;;;;;;;;4994665;28;20010;-78
2023/10/21 08:24:07;;;;;;;15.88;6.57;;;;;;;;;;4994988;28;20033;-78
2023/10/21 08:26:32;;;;;;;;;;;;;;;;;;5013352;28;20038;-78
2023/10/21 08:28:58;;;;;;;13.43;4.07;;;;;;;;;;4994954;28;19916;-78
2023/10/21 08:31:24;;;;;;;14.75;4.80;;;;;;;;;;5012302;28;20033;-79
2023/10/21 08:33:51;;;;;;;12.93;4.32;;;;;;;;;;5011988;28;20087;-79
2023/10/21 08:36:18;;;;;;;13.50;4.05;;;;;;;;;;4994931;28;20036;-78
2023/10/21 08:38:44;;;;;;;13.32;4.03;;;;;;;;;;4995763;28;20033;-78
2023/10/21 08:41:11;;;;;;;10.00;3.25;;;;;;;;;;4994537;28;20384;-78
2023/10/21 08:43:37;;;;;;;14.75;3.95;;;;;;;;;;5012474;28;20038;-79
2023/10/21 08:46:03;;;;;;;16.00;3.97;;;;;;;;;;4994588;28;20380;-79
2023/10/21 08:48:30;;;;;;;13.05;3.67;;;;;;;;;;4977782;28;20014;-77
2023/10/21 08:50:56;;;;;;;11.02;3.33;;;;;;;;;;4994997;28;20040;-78
2023/10/21 08:53:23;;;;;;;12.25;3.45;;;;;;;;;;5012191;28;20460;-78
2023/10/21 08:55:49;;;;;;;8.35;3.17;;;;;;;;;;4994524;28;20022;-78
2023/10/21 08:58:15;;;;;;;11.38;3.65;;;;;;;;;;5012118;28;20429;-78
2023/10/21 09:00:41;;;;;;;12.63;3.35;;;;;;;;;;5011780;28;20066;-78
2023/10/21 09:03:08;;;;;;;11.18;3.72;;;;;;;;;;4994289;28;20029;-78
2023/10/21 09:05:34;;;;;;;13.25;3.83;;;;;;;;;;4994151;28;20026;-78
2023/10/21 09:07:59;;;;;;;11.35;3.92;;;;;;;;;;4994563;28;20358;-79
2023/10/21 09:10:25;;;;;;;14.15;4.40;;;;;;;;;;5014785;28;20034;-78
2023/10/21 09:12:50;;;;;;;12.32;4.57;;;;;;;;;;5015825;28;20137;-78
2023/10/21 09:15:16;;;;;;;13.32;3.88;;;;;;;;;;4998274;28;20038;-77
2023/10/21 09:17:45;;;;;;;9.27;3.35;;;;;;;;;;4998014;28;20040;-78
2023/10/21 09:20:11;;;;;;;9.45;3.92;;;;;;;;;;5015462;28;20424;-78
2023/10/21 09:22:38;;;;;;;14.73;4.22;;;;;;;;;;5014599;28;20053;-78
2023/10/21 09:25:15;;;;;;;12.63;3.45;;;;;;;;;;5016772;28;20030;-77
2023/10/21 09:27:56;;;;;;;12.50;4.40;;;;;;;;;;4999188;28;20021;-78
2023/10/21 09:30:23;;;;;;;10.57;3.33;;;;;;;;;;4982266;28;20034;-78
2023/10/21 09:32:52;;;;;;;18.33;4.80;;;;;;;;;;4997871;28;20446;-77
2023/10/21 09:35:17;;;;;;;11.90;4.60;;;;;;;;;;5016144;28;20037;-77
2023/10/21 09:37:44;;;;;;;10.73;4.55;;;;;;;;;;5016454;28;20479;-77
2023/10/21 09:40:10;;;;;;;14.85;5.15;;;;;;;;;;5016000;28;20060;-78
2023/10/21 09:42:37;;;;;;;19.30;5.97;;;;;;;;;;5015102;28;20030;-78
2023/10/21 09:45:03;;;;;;;17.52;4.63;;;;;;;;;;5016747;28;20030;-78
2023/10/21 09:47:29;;;;;;;16.23;5.68;;;;;;;;;;5015779;28;20030;-78
2023/10/21 09:49:56;;;;;;;17.05;5.13;;;;;;;;;;5015463;28;20068;-78
2023/10/21 09:52:26;;;;;;;22.50;6.43;;;;;;;;;;4997489;28;20037;-78
2023/10/21 09:55:10;;;;;;;17.02;5.90;;;;;;;;;;5014816;28;20116;-78
2023/10/21 09:57:36;;;;;;;19.60;6.38;;;;;;;;;;5015063;28;20037;-78
2023/10/21 10:00:03;;;;;;;14.23;4.32;;;;;;;;;;4997128;28;20030;-78
2023/10/21 10:02:32;;;;;;;13.95;4.40;;;;;;;;;;4996939;28;20106;-79
2023/10/21 10:04:58;;;;;;;13.70;4.30;;;;;;;;;;4997220;28;20088;-78
2023/10/21 10:07:24;;;;;;;14.23;4.38;;;;;;;;;;4996435;28;20112;-78
2023/10/21 10:09:49;;;;;;;10.52;4.07;;;;;;;;;;5003004;28;20426;-77
2023/10/21 10:12:18;;;;;;;12.90;3.72;;;;;;;;;;5008649;28;20054;-78
2023/10/21 10:14:45;;;;;;;12.38;4.32;;;;;;;;;;5015883;28;20080;-78
2023/10/21 10:17:11;;;;;;;9.13;3.22;;;;;;;;;;5015871;28;20092;-78
2023/10/21 10:19:40;;;;;;;4.85;2.88;;;;;;;;;;5015609;28;20041;-78
2023/10/21 10:22:19;;;;;;;5.72;2.60;;;;;;;;;;5014681;28;20025;-78
2023/10/21 10:25:17;;;;;;;6.75;2.72;;;;;;;;;;4996658;28;20503;-78
2023/10/21 10:27:46;;;;;;;5.15;2.75;;;;;;;;;;4965968;28;20082;-78
2023/10/21 10:30:19;;;;;;;8.32;2.60;;;;;;;;;;5015950;28;20025;-78
2023/10/21 10:32:47;;;;;;;8.93;3.13;;;;;;;;;;5017092;28;20038;-78
2023/10/21 10:35:32;;;;;;;5.20;2.30;;;;;;;;;;5015299;28;20044;-78
2023/10/21 10:38:01;;;;;;;9.25;2.40;;;;;;;;;;5015992;28;20029;-78
2023/10/21 10:40:37;;;;;;;11.32;3.00;;;;;;;;;;5015593;28;20022;-78
2023/10/21 10:43:05;;;;;;;5.40;2.35;;;;;;;;;;5014354;28;20035;-77
2023/10/21 10:45:32;;;;;;;7.32;2.35;;;;;;;;;;5006397;28;20049;-78
2023/10/21 10:48:02;;;;;;;5.07;2.13;;;;;;;;;;4985998;28;20400;-78
2023/10/21 10:50:28;;;;;;;5.65;1.92;;;;;;;;;;5011524;28;20033;-78
2023/10/21 10:52:55;;;;;;;4.03;1.77;;;;;;;;;;4996936;28;20030;-78
2023/10/21 10:55:21;;;;;;;5.13;1.85;;;;;;;;;;5010462;28;20364;-78
2023/10/21 10:57:51;;;;;;;3.92;1.67;;;;;;;;;;4997298;28;20076;-78
2023/10/21 11:00:20;;;;;;;6.07;2.13;;;;;;;;;;5015015;28;20042;-78
2023/10/21 11:02:46;;;;;;;6.97;2.03;;;;;;;;;;5014401;28;20096;-78
2023/10/21 11:05:22;;;;;;;6.63;1.85;;;;;;;;;;5013631;28;20029;-78
2023/10/21 11:07:52;;;;;;;2.35;1.90;;;;;;;;;;5012383;28;20030;-78
2023/10/21 11:10:21;;;;;;;3.28;2.10;;;;;;;;;;5013579;28;20026;-78
2023/10/21 11:12:48;;;;;;;4.03;1.63;;;;;;;;;;5012364;28;20045;-78
2023/10/21 11:15:13;;;;;;;3.42;2.05;;;;;;;;;;4995780;28;20026;-78
2023/10/21 11:17:39;;;;;;;5.57;1.80;;;;;;;;;;5011978;28;20092;-78
2023/10/21 11:20:07;;;;;;;6.38;2.08;;;;;;;;;;5011765;28;20394;-78
2023/10/21 11:22:33;;;;;;;5.72;1.80;;;;;;;;;;5011226;28;20017;-78
2023/10/21 11:24:58;;;;;;;6.00;2.00;;;;;;;;;;5010125;28;20026;-78
2023/10/21 11:27:24;;;;;;;5.80;1.52;;;;;;;;;;5011768;28;20125;-78
2023/10/21 11:29:51;;;;;;;5.90;2.20;;;;;;;;;;5011822;28;20439;-78
2023/10/21 11:32:23;;;;;;;6.88;2.00;;;;;;;;;;5012494;28;20037;-78
2023/10/21 11:34:49;;;;;;;3.78;1.83;;;;;;;;;;5013045;28;20045;-78
2023/10/21 11:37:15;;;;;;;4.80;2.47;;;;;;;;;;5013371;28;20037;-78
2023/10/21 11:39:41;;;;;;;3.28;1.88;;;;;;;;;;5013338;28;20097;-78
2023/10/21 11:42:17;;;;;;;5.10;2.30;;;;;;;;;;5012722;28;20073;-78
2023/10/21 11:44:53;;;;;;;8.35;2.25;;;;;;;;;;5012945;28;20033;-78
2023/10/21 11:47:18;;;;;;;4.47;2.13;;;;;;;;;;5012987;28;20034;-78
2023/10/21 11:49:45;;;;;;;5.78;2.30;;;;;;;;;;5011862;28;20022;-79
2023/10/21 11:52:11;;;;;;;6.30;2.10;;;;;;;;;;5012986;28;20034;-78
2023/10/21 11:54:40;;;;;;;3.58;1.63;;;;;;;;;;5012857;28;20037;-78
2023/10/21 12:11:08;;;;;;;4.97;2.30;;;;;;;;;;5012788;28;20504;-78
2023/10/21 12:21:20;;;;;;;4.93;2.10;;;;;;;;;;5012597;28;20380;-78
2023/10/21 12:34:29;;;;;;;8.30;2.97;;;;;;;;;;5011392;28;20184;-79
2023/10/21 12:39:47;;;;;;;6.57;2.05;;;;;;;;;;5011191;28;20068;-79
2023/10/21 12:42:47;;;;;;;6.95;2.47;;;;;;;;;;5011636;28;20038;-79
2023/10/21 12:45:20;;;;;;;4.82;2.63;;;;;;;;;;5010523;28;20038;-79
2023/10/21 12:47:49;;;;;;;6.32;2.40;;;;;;;;;;4998998;28;20038;-79
2023/10/21 12:50:15;;;;;;;6.53;2.38;;;;;;;;;;5016471;28;20405;-79
2023/10/21 12:52:43;;;;;;;5.95;2.22;;;;;;;;;;5016159;28;20037;-79
2023/10/21 12:55:11;;;;;;;7.82;2.20;;;;;;;;;;5016358;28;20100;-79
2023/10/21 12:57:37;;;;;;;5.55;2.60;;;;;;;;;;5016447;28;20474;-79
2023/10/21 13:00:05;;;;;;;6.03;1.98;;;;;;;;;;5016020;28;20096;-79
2023/10/21 13:02:35;;;;;;;7.10;2.53;;;;;;;;;;5016318;28;20034;-78
2023/10/21 13:05:01;;;;;;;;;;;;;;;;;;5016959;28;20038;-79
2023/10/21 13:07:26;;;;;;;11.20;2.80;;;;;;;;;;5016850;28;19917;-77
2023/10/21 13:09:55;;;;;;;7.57;2.80;;;;;;;;;;5016909;28;20037;-78
2023/10/21 13:12:20;;;;;;;5.20;2.22;;;;;;;;;;5016326;28;20493;-78
2023/10/21 13:14:50;;;;;;;5.40;2.28;;;;;;;;;;4999446;28;20036;-77
2023/10/21 13:17:16;;;;;;;6.23;2.53;;;;;;;;;;5016564;28;20117;-78
2023/10/21 13:19:42;;;;;;;6.43;2.47;;;;;;;;;;5016687;28;20551;-78
2023/10/21 13:22:08;;;;;;;3.88;2.05;;;;;;;;;;5015693;28;20034;-78
2023/10/21 13:24:34;;;;;;;5.00;2.17;;;;;;;;;;5015956;28;20038;-78
2023/10/21 13:27:00;;;;;;;8.45;2.13;;;;;;;;;;4999251;28;20037;-78
2023/10/21 13:29:25;;;;;;;3.53;1.80;;;;;;;;;;5017141;28;20710;-78
2023/10/21 13:31:51;;;;;;;4.40;2.20;;;;;;;;;;5015009;28;20032;-78
2023/10/21 13:34:16;;;;;;;9.07;2.33;;;;;;;;;;5016601;28;20045;-77
2023/10/21 13:36:41;;;;;;;5.13;2.30;;;;;;;;;;5016271;28;20064;-78
2023/10/21 13:39:18;;;;;;;6.43;2.38;;;;;;;;;;5016640;28;20452;-78
2023/10/21 13:41:47;;;;;;;6.80;2.17;;;;;;;;;;5014874;28;20084;-75
2023/10/21 13:44:13;;;;;;;8.68;2.35;;;;;;;;;;4997692;28;20026;-71
2023/10/21 13:46:38;;;;;;;6.72;2.58;;;;;;;;;;5014511;28;20120;-75
2023/10/21 13:49:06;;;;;;;6.43;2.40;;;;;;;;;;5016431;28;20473;-75
2023/10/21 13:51:31;;;;;;;5.60;2.35;;;;;;;;;;5016162;28;20042;-74
2023/10/21 13:53:58;;;;;;;7.47;2.30;;;;;;;;;;5015862;28;20036;-74
2023/10/21 13:56:23;;;;;;;5.53;2.28;;;;;;;;;;4996276;28;20034;-75
2023/10/21 13:58:48;;;;;;;5.40;2.10;;;;;;;;;;5015410;28;20029;-74
2023/10/21 14:01:14;;;;;;;4.40;2.47;;;;;;;;;;5014796;28;20179;-74
2023/10/21 14:03:40;;;;;;;7.43;2.35;;;;;;;;;;5013165;28;20025;-74
2023/10/21 14:06:05;;;;;;;5.65;2.80;;;;;;;;;;5013195;28;20580;-74
2023/10/21 14:08:31;;;;;;;9.23;2.45;;;;;;;;;;5014707;28;20593;-74
2023/10/21 14:10:58;;;;;;;7.05;2.45;;;;;;;;;;5013557;28;20046;-74
2023/10/21 14:13:26;;;;;;;6.70;2.13;;;;;;;;;;5013668;28;20050;-74
2023/10/21 14:15:53;;;;;;;6.43;2.40;;;;;;;;;;5012329;28;20060;-74
2023/10/21 14:18:19;;;;;;;6.78;2.53;;;;;;;;;;5013828;28;20034;-74
2023/10/21 14:20:55;;;;;;;7.57;2.28;;;;;;;;;;5014062;28;20025;-75
2023/10/21 14:23:24;;;;;;;6.85;2.15;;;;;;;;;;5013831;28;20416;-74
2023/10/21 14:25:54;;;;;;;5.45;2.30;;;;;;;;;;5013832;28;20418;-75
2023/10/21 14:28:20;;;;;;;5.20;2.60;;;;;;;;;;4997060;28;20034;-70
2023/10/21 14:30:46;;;;;;;4.97;2.35;;;;;;;;;;4997797;28;20028;-70
2023/10/21 14:33:12;;;;;;;13.55;5.32;;;;;;;;;;4997382;28;20034;-70
2023/10/21 14:35:39;;;;;;;126.10;47.88;;;;;;;;;;5015335;28;20511;-70
2023/10/21 14:38:04;;;;;;;52.90;22.85;;;;;;;;;;5015232;28;20393;-70
2023/10/21 14:40:30;;;;;;;12.60;4.60;;;;;;;;;;5015210;28;20037;-70
2023/10/21 14:42:56;;;;;;;8.02;3.33;;;;;;;;;;5014549;28;20048;-70
2023/10/21 14:45:21;;;;;;;6.47;2.75;;;;;;;;;;5014652;28;20025;-70
2023/10/21 14:47:46;;;;;;;11.05;3.85;;;;;;;;;;5015061;28;20357;-70
2023/10/21 14:50:12;;;;;;;18.33;7.32;;;;;;;;;;5015048;28;20030;-70
2023/10/21 14:52:37;;;;;;;11.02;5.68;;;;;;;;;;5014799;28;20508;-70
2023/10/21 14:55:05;;;;;;;10.95;4.13;;;;;;;;;;5015102;28;20033;-70
2023/10/21 14:57:34;;;;;;;16.10;8.18;;;;;;;;;;5013680;28;20057;-70
2023/10/21 15:00:00;;;;;;;14.75;8.05;;;;;;;;;;5014856;28;20068;-70
2023/10/21 15:02:26;;;;;;;16.23;7.07;;;;;;;;;;4996409;28;20420;-70
2023/10/21 15:04:52;;;;;;;14.02;8.43;;;;;;;;;;5013017;28;20505;-70
2023/10/21 15:07:17;;;;;;;15.02;7.53;;;;;;;;;;5013515;28;20053;-69